sensor_id;sensor_type;location;lat;lon;timestamp;P1;durP1;ratioP1;P2;durP2;ratioP2
10045;SDS011;5063;50.878;4.742;2022-09-17T00:00:21;3.90;;;1.27;;
10045;SDS011;5063;50.878;4.742;2022-09-17T00:02:51;4.47;;;1.70;;
10045;SDS011;5063;50.878;4.742;2022-09-17T00:05:23;4.70;;;1.70;;
10045;SDS011;5063;50.878;4.742;2022-09-17T00:07:50;5.97;;;1.87;;
10045;SDS011;5063;50.878;4.742;2022-09-17T00:10:16;5.53;;;2.10;;
10045;SDS011;5063;50.878;4.742;2022-09-17T00:12:43;6.87;;;1.87;;
10045;SDS011;5063;50.878;4.742;2022-09-17T00:15:09;5.17;;;1.63;;
10045;SDS011;5063;50.878;4.742;2022-09-17T00:17:36;4.83;;;1.30;;
10045;SDS011;5063;50.878;4.742;2022-09-17T00:20:02;5.27;;;1.50;;
10045;SDS011;5063;50.878;4.742;2022-09-17T00:22:28;6.87;;;1.50;;
10045;SDS011;5063;50.878;4.742;2022-09-17T00:24:54;7.80;;;2.03;;
10045;SDS011;5063;50.878;4.742;2022-09-17T00:27:20;4.33;;;1.77;;
10045;SDS011;5063;50.878;4.742;2022-09-17T00:29:46;7.13;;;1.53;;
10045;SDS011;5063;50.878;4.742;2022-09-17T00:32:12;8.83;;;1.63;;
10045;SDS011;5063;50.878;4.742;2022-09-17T00:34:38;6.60;;;1.70;;
10045;SDS011;5063;50.878;4.742;2022-09-17T00:37:04;5.17;;;1.40;;
10045;SDS011;5063;50.878;4.742;2022-09-17T00:39:29;5.30;;;1.30;;
10045;SDS011;5063;50.878;4.742;2022-09-17T00:41:55;6.47;;;1.43;;
10045;SDS011;5063;50.878;4.742;2022-09-17T00:49:43;3.70;;;1.60;;
10045;SDS011;5063;50.878;4.742;2022-09-17T00:52:12;5.90;;;1.83;;
10045;SDS011;5063;50.878;4.742;2022-09-17T00:54:52;5.57;;;1.73;;
10045;SDS011;5063;50.878;4.742;2022-09-17T00:57:22;9.33;;;2.17;;
10045;SDS011;5063;50.878;4.742;2022-09-17T00:59:48;6.30;;;1.73;;
10045;SDS011;5063;50.878;4.742;2022-09-17T01:02:15;6.57;;;1.77;;
10045;SDS011;5063;50.878;4.742;2022-09-17T01:04:41;7.33;;;1.67;;
10045;SDS011;5063;50.878;4.742;2022-09-17T01:07:09;4.57;;;1.70;;
10045;SDS011;5063;50.878;4.742;2022-09-17T01:10:04;3.47;;;1.40;;
10045;SDS011;5063;50.878;4.742;2022-09-17T01:18:00;7.73;;;2.43;;
10045;SDS011;5063;50.878;4.742;2022-09-17T01:20:34;4.60;;;1.93;;
10045;SDS011;5063;50.878;4.742;2022-09-17T01:23:58;8.83;;;2.33;;
10045;SDS011;5063;50.878;4.742;2022-09-17T01:36:52;4.90;;;1.83;;
10045;SDS011;5063;50.878;4.742;2022-09-17T01:48:20;4.77;;;1.43;;
10045;SDS011;5063;50.878;4.742;2022-09-17T01:50:49;4.07;;;1.97;;
10045;SDS011;5063;50.878;4.742;2022-09-17T01:53:21;6.53;;;1.50;;
10045;SDS011;5063;50.878;4.742;2022-09-17T01:55:52;4.33;;;1.30;;
10045;SDS011;5063;50.878;4.742;2022-09-17T01:58:31;4.13;;;1.43;;
10045;SDS011;5063;50.878;4.742;2022-09-17T02:01:02;4.73;;;1.43;;
10045;SDS011;5063;50.878;4.742;2022-09-17T02:03:32;6.77;;;1.70;;
10045;SDS011;5063;50.878;4.742;2022-09-17T02:06:00;4.30;;;1.73;;
10045;SDS011;5063;50.878;4.742;2022-09-17T02:08:38;6.43;;;1.60;;
10045;SDS011;5063;50.878;4.742;2022-09-17T02:11:12;7.47;;;1.80;;
10045;SDS011;5063;50.878;4.742;2022-09-17T02:13:40;7.07;;;1.60;;
10045;SDS011;5063;50.878;4.742;2022-09-17T02:16:25;3.13;;;1.43;;
10045;SDS011;5063;50.878;4.742;2022-09-17T02:21:42;4.77;;;1.73;;
10045;SDS011;5063;50.878;4.742;2022-09-17T02:24:17;7.00;;;1.80;;
10045;SDS011;5063;50.878;4.742;2022-09-17T02:29:42;3.70;;;1.80;;
10045;SDS011;5063;50.878;4.742;2022-09-17T02:32:09;7.57;;;1.87;;
10045;SDS011;5063;50.878;4.742;2022-09-17T02:34:36;8.63;;;2.10;;
10045;SDS011;5063;50.878;4.742;2022-09-17T02:37:02;4.70;;;1.80;;
10045;SDS011;5063;50.878;4.742;2022-09-17T02:39:29;8.50;;;1.73;;
10045;SDS011;5063;50.878;4.742;2022-09-17T02:53:05;7.87;;;2.00;;
10045;SDS011;5063;50.878;4.742;2022-09-17T02:56:02;8.37;;;1.97;;
10045;SDS011;5063;50.878;4.742;2022-09-17T03:04:21;2.83;;;1.47;;
10045;SDS011;5063;50.878;4.742;2022-09-17T03:06:50;4.17;;;1.47;;
10045;SDS011;5063;50.878;4.742;2022-09-17T03:09:17;5.87;;;2.07;;
10045;SDS011;5063;50.878;4.742;2022-09-17T03:11:43;11.80;;;2.30;;
10045;SDS011;5063;50.878;4.742;2022-09-17T03:14:09;6.63;;;1.93;;
10045;SDS011;5063;50.878;4.742;2022-09-17T03:16:34;3.50;;;1.77;;
10045;SDS011;5063;50.878;4.742;2022-09-17T03:19:00;7.27;;;2.20;;
10045;SDS011;5063;50.878;4.742;2022-09-17T03:21:26;6.43;;;1.67;;
10045;SDS011;5063;50.878;4.742;2022-09-17T03:23:51;3.77;;;1.50;;
10045;SDS011;5063;50.878;4.742;2022-09-17T03:26:17;6.37;;;2.07;;
10045;SDS011;5063;50.878;4.742;2022-09-17T03:28:43;4.53;;;1.53;;
10045;SDS011;5063;50.878;4.742;2022-09-17T03:31:09;4.57;;;2.07;;
10045;SDS011;5063;50.878;4.742;2022-09-17T03:33:34;6.97;;;1.90;;
10045;SDS011;5063;50.878;4.742;2022-09-17T03:36:00;7.57;;;2.20;;
10045;SDS011;5063;50.878;4.742;2022-09-17T03:38:26;5.33;;;1.90;;
10045;SDS011;5063;50.878;4.742;2022-09-17T03:40:56;8.70;;;2.30;;
10045;SDS011;5063;50.878;4.742;2022-09-17T03:43:26;11.50;;;2.00;;
10045;SDS011;5063;50.878;4.742;2022-09-17T03:45:52;8.33;;;1.60;;
10045;SDS011;5063;50.878;4.742;2022-09-17T03:48:18;7.10;;;1.87;;
10045;SDS011;5063;50.878;4.742;2022-09-17T03:50:44;6.97;;;1.90;;
10045;SDS011;5063;50.878;4.742;2022-09-17T03:53:10;4.57;;;1.80;;
10045;SDS011;5063;50.878;4.742;2022-09-17T03:55:38;6.33;;;1.60;;
10045;SDS011;5063;50.878;4.742;2022-09-17T03:58:05;6.77;;;1.90;;
10045;SDS011;5063;50.878;4.742;2022-09-17T04:00:31;9.23;;;2.07;;
10045;SDS011;5063;50.878;4.742;2022-09-17T04:02:57;3.17;;;1.53;;
10045;SDS011;5063;50.878;4.742;2022-09-17T04:05:23;6.33;;;1.70;;
10045;SDS011;5063;50.878;4.742;2022-09-17T04:07:48;7.80;;;2.10;;
10045;SDS011;5063;50.878;4.742;2022-09-17T04:10:14;4.77;;;1.90;;
10045;SDS011;5063;50.878;4.742;2022-09-17T04:12:40;4.10;;;1.77;;
10045;SDS011;5063;50.878;4.742;2022-09-17T04:15:06;5.17;;;1.90;;
10045;SDS011;5063;50.878;4.742;2022-09-17T04:17:32;7.20;;;2.37;;
10045;SDS011;5063;50.878;4.742;2022-09-17T04:19:58;5.20;;;2.03;;
10045;SDS011;5063;50.878;4.742;2022-09-17T04:22:24;6.07;;;1.90;;
10045;SDS011;5063;50.878;4.742;2022-09-17T04:24:50;4.77;;;1.70;;
10045;SDS011;5063;50.878;4.742;2022-09-17T04:27:16;6.60;;;2.37;;
10045;SDS011;5063;50.878;4.742;2022-09-17T04:29:42;7.20;;;2.40;;
10045;SDS011;5063;50.878;4.742;2022-09-17T04:32:08;5.83;;;2.10;;
10045;SDS011;5063;50.878;4.742;2022-09-17T04:34:34;8.50;;;1.67;;
10045;SDS011;5063;50.878;4.742;2022-09-17T04:36:59;8.37;;;2.17;;
10045;SDS011;5063;50.878;4.742;2022-09-17T04:39:25;8.97;;;2.27;;
10045;SDS011;5063;50.878;4.742;2022-09-17T04:41:51;5.80;;;2.27;;
10045;SDS011;5063;50.878;4.742;2022-09-17T04:44:17;8.00;;;2.63;;
10045;SDS011;5063;50.878;4.742;2022-09-17T04:46:42;8.70;;;2.20;;
10045;SDS011;5063;50.878;4.742;2022-09-17T04:49:08;7.77;;;2.17;;
10045;SDS011;5063;50.878;4.742;2022-09-17T04:51:35;10.93;;;2.37;;
10045;SDS011;5063;50.878;4.742;2022-09-17T04:54:01;5.80;;;1.93;;
10045;SDS011;5063;50.878;4.742;2022-09-17T04:56:26;7.00;;;2.20;;
10045;SDS011;5063;50.878;4.742;2022-09-17T04:58:52;5.47;;;2.40;;
10045;SDS011;5063;50.878;4.742;2022-09-17T05:01:18;8.93;;;2.47;;
10045;SDS011;5063;50.878;4.742;2022-09-17T05:03:44;8.63;;;2.50;;
10045;SDS011;5063;50.878;4.742;2022-09-17T05:06:10;6.37;;;1.90;;
10045;SDS011;5063;50.878;4.742;2022-09-17T05:08:36;7.50;;;1.77;;
10045;SDS011;5063;50.878;4.742;2022-09-17T05:11:02;11.07;;;2.17;;
10045;SDS011;5063;50.878;4.742;2022-09-17T05:13:28;9.83;;;2.40;;
10045;SDS011;5063;50.878;4.742;2022-09-17T05:15:54;9.47;;;1.90;;
10045;SDS011;5063;50.878;4.742;2022-09-17T05:18:22;8.10;;;2.33;;
10045;SDS011;5063;50.878;4.742;2022-09-17T05:20:48;7.70;;;2.00;;
10045;SDS011;5063;50.878;4.742;2022-09-17T05:23:14;10.60;;;2.33;;
10045;SDS011;5063;50.878;4.742;2022-09-17T05:25:40;7.03;;;2.40;;
10045;SDS011;5063;50.878;4.742;2022-09-17T05:28:06;10.63;;;2.20;;
10045;SDS011;5063;50.878;4.742;2022-09-17T05:30:32;6.67;;;1.90;;
10045;SDS011;5063;50.878;4.742;2022-09-17T05:33:02;8.30;;;1.90;;
10045;SDS011;5063;50.878;4.742;2022-09-17T05:35:29;5.70;;;1.70;;
10045;SDS011;5063;50.878;4.742;2022-09-17T05:37:57;4.17;;;1.60;;
10045;SDS011;5063;50.878;4.742;2022-09-17T05:40:24;4.90;;;1.77;;
10045;SDS011;5063;50.878;4.742;2022-09-17T05:42:49;6.97;;;1.60;;
10045;SDS011;5063;50.878;4.742;2022-09-17T05:45:15;5.73;;;2.30;;
10045;SDS011;5063;50.878;4.742;2022-09-17T05:47:41;7.27;;;2.17;;
10045;SDS011;5063;50.878;4.742;2022-09-17T05:50:06;9.83;;;1.87;;
10045;SDS011;5063;50.878;4.742;2022-09-17T05:52:32;14.43;;;2.17;;
10045;SDS011;5063;50.878;4.742;2022-09-17T05:54:58;4.93;;;1.87;;
10045;SDS011;5063;50.878;4.742;2022-09-17T05:57:24;7.10;;;2.27;;
10045;SDS011;5063;50.878;4.742;2022-09-17T05:59:54;10.20;;;2.47;;
10045;SDS011;5063;50.878;4.742;2022-09-17T06:02:19;12.07;;;2.37;;
10045;SDS011;5063;50.878;4.742;2022-09-17T06:04:45;14.80;;;2.23;;
10045;SDS011;5063;50.878;4.742;2022-09-17T06:07:11;14.10;;;2.00;;
10045;SDS011;5063;50.878;4.742;2022-09-17T06:09:36;10.93;;;2.90;;
10045;SDS011;5063;50.878;4.742;2022-09-17T06:12:03;10.60;;;2.60;;
10045;SDS011;5063;50.878;4.742;2022-09-17T06:14:29;8.47;;;2.10;;
10045;SDS011;5063;50.878;4.742;2022-09-17T06:16:55;11.17;;;2.60;;
10045;SDS011;5063;50.878;4.742;2022-09-17T06:19:21;7.87;;;1.90;;
10045;SDS011;5063;50.878;4.742;2022-09-17T06:21:47;8.70;;;2.33;;
10045;SDS011;5063;50.878;4.742;2022-09-17T06:24:14;6.03;;;1.63;;
10045;SDS011;5063;50.878;4.742;2022-09-17T06:26:40;9.87;;;2.30;;
10045;SDS011;5063;50.878;4.742;2022-09-17T06:29:06;5.80;;;1.90;;
10045;SDS011;5063;50.878;4.742;2022-09-17T06:31:32;6.17;;;2.03;;
10045;SDS011;5063;50.878;4.742;2022-09-17T06:33:58;7.27;;;2.10;;
10045;SDS011;5063;50.878;4.742;2022-09-17T06:36:24;8.03;;;2.07;;
10045;SDS011;5063;50.878;4.742;2022-09-17T06:38:49;6.53;;;1.70;;
10045;SDS011;5063;50.878;4.742;2022-09-17T06:41:15;5.77;;;1.93;;
10045;SDS011;5063;50.878;4.742;2022-09-17T06:43:41;8.40;;;2.13;;
10045;SDS011;5063;50.878;4.742;2022-09-17T06:46:08;7.53;;;2.70;;
10045;SDS011;5063;50.878;4.742;2022-09-17T06:48:35;7.17;;;2.03;;
10045;SDS011;5063;50.878;4.742;2022-09-17T06:51:02;6.77;;;2.03;;
10045;SDS011;5063;50.878;4.742;2022-09-17T06:53:30;6.63;;;2.00;;
10045;SDS011;5063;50.878;4.742;2022-09-17T06:55:59;6.50;;;1.90;;
10045;SDS011;5063;50.878;4.742;2022-09-17T06:58:25;5.57;;;1.80;;
10045;SDS011;5063;50.878;4.742;2022-09-17T07:00:56;8.37;;;2.10;;
10045;SDS011;5063;50.878;4.742;2022-09-17T07:03:24;5.70;;;2.13;;
10045;SDS011;5063;50.878;4.742;2022-09-17T07:05:50;6.93;;;2.40;;
10045;SDS011;5063;50.878;4.742;2022-09-17T07:08:16;7.47;;;2.13;;
10045;SDS011;5063;50.878;4.742;2022-09-17T07:10:43;3.47;;;1.80;;
10045;SDS011;5063;50.878;4.742;2022-09-17T07:13:08;6.80;;;1.70;;
10045;SDS011;5063;50.878;4.742;2022-09-17T07:15:34;6.13;;;2.07;;
10045;SDS011;5063;50.878;4.742;2022-09-17T07:18:06;8.43;;;2.43;;
10045;SDS011;5063;50.878;4.742;2022-09-17T07:20:35;8.57;;;2.30;;
10045;SDS011;5063;50.878;4.742;2022-09-17T07:23:01;7.40;;;1.83;;
10045;SDS011;5063;50.878;4.742;2022-09-17T07:25:27;7.23;;;1.90;;
10045;SDS011;5063;50.878;4.742;2022-09-17T07:27:53;6.77;;;2.23;;
10045;SDS011;5063;50.878;4.742;2022-09-17T07:30:19;5.20;;;1.97;;
10045;SDS011;5063;50.878;4.742;2022-09-17T07:32:45;5.33;;;1.60;;
10045;SDS011;5063;50.878;4.742;2022-09-17T07:35:11;4.40;;;1.87;;
10045;SDS011;5063;50.878;4.742;2022-09-17T07:37:37;6.20;;;1.87;;
10045;SDS011;5063;50.878;4.742;2022-09-17T07:40:04;5.87;;;2.00;;
10045;SDS011;5063;50.878;4.742;2022-09-17T07:42:31;5.57;;;1.70;;
10045;SDS011;5063;50.878;4.742;2022-09-17T07:44:58;7.23;;;2.20;;
10045;SDS011;5063;50.878;4.742;2022-09-17T07:47:23;4.07;;;2.00;;
10045;SDS011;5063;50.878;4.742;2022-09-17T07:49:49;5.77;;;1.93;;
10045;SDS011;5063;50.878;4.742;2022-09-17T07:52:15;6.37;;;2.20;;
10045;SDS011;5063;50.878;4.742;2022-09-17T07:54:40;4.43;;;1.80;;
10045;SDS011;5063;50.878;4.742;2022-09-17T07:57:06;9.93;;;2.07;;
10045;SDS011;5063;50.878;4.742;2022-09-17T07:59:32;2.83;;;1.30;;
10045;SDS011;5063;50.878;4.742;2022-09-17T08:01:58;5.30;;;1.90;;
10045;SDS011;5063;50.878;4.742;2022-09-17T08:04:24;5.63;;;1.73;;
10045;SDS011;5063;50.878;4.742;2022-09-17T08:06:50;6.07;;;1.93;;
10045;SDS011;5063;50.878;4.742;2022-09-17T08:09:16;7.00;;;2.03;;
10045;SDS011;5063;50.878;4.742;2022-09-17T08:11:42;5.67;;;1.47;;
10045;SDS011;5063;50.878;4.742;2022-09-17T08:14:09;7.10;;;2.23;;
10045;SDS011;5063;50.878;4.742;2022-09-17T08:16:36;10.20;;;2.27;;
10045;SDS011;5063;50.878;4.742;2022-09-17T08:19:02;5.00;;;1.87;;
10045;SDS011;5063;50.878;4.742;2022-09-17T08:21:28;4.50;;;1.60;;
10045;SDS011;5063;50.878;4.742;2022-09-17T08:23:54;2.83;;;1.50;;
10045;SDS011;5063;50.878;4.742;2022-09-17T08:26:21;9.43;;;1.90;;
10045;SDS011;5063;50.878;4.742;2022-09-17T08:28:48;3.53;;;1.40;;
10045;SDS011;5063;50.878;4.742;2022-09-17T08:31:16;2.73;;;1.80;;
10045;SDS011;5063;50.878;4.742;2022-09-17T08:33:43;5.93;;;1.93;;
10045;SDS011;5063;50.878;4.742;2022-09-17T08:36:10;3.90;;;1.83;;
10045;SDS011;5063;50.878;4.742;2022-09-17T08:38:37;6.97;;;2.47;;
10045;SDS011;5063;50.878;4.742;2022-09-17T08:46:27;4.70;;;1.90;;
10045;SDS011;5063;50.878;4.742;2022-09-17T08:57:21;5.90;;;1.77;;
10045;SDS011;5063;50.878;4.742;2022-09-17T09:11:02;6.00;;;2.10;;
10045;SDS011;5063;50.878;4.742;2022-09-17T09:13:34;6.33;;;2.20;;
10045;SDS011;5063;50.878;4.742;2022-09-17T09:16:39;4.97;;;2.10;;
10045;SDS011;5063;50.878;4.742;2022-09-17T09:21:56;4.83;;;1.80;;
10045;SDS011;5063;50.878;4.742;2022-09-17T09:24:41;5.50;;;1.60;;
10045;SDS011;5063;50.878;4.742;2022-09-17T09:27:26;5.73;;;1.83;;
10045;SDS011;5063;50.878;4.742;2022-09-17T09:35:31;10.73;;;2.43;;
10045;SDS011;5063;50.878;4.742;2022-09-17T09:41:03;7.00;;;1.63;;
10045;SDS011;5063;50.878;4.742;2022-09-17T09:43:43;3.30;;;1.77;;
10045;SDS011;5063;50.878;4.742;2022-09-17T09:46:30;6.63;;;1.80;;
10045;SDS011;5063;50.878;4.742;2022-09-17T09:49:25;6.03;;;1.80;;
10045;SDS011;5063;50.878;4.742;2022-09-17T09:57:45;2.67;;;1.17;;
10045;SDS011;5063;50.878;4.742;2022-09-17T10:03:40;4.53;;;1.47;;
10045;SDS011;5063;50.878;4.742;2022-09-17T10:08:32;6.97;;;1.67;;
10045;SDS011;5063;50.878;4.742;2022-09-17T10:13:38;4.13;;;1.10;;
10045;SDS011;5063;50.878;4.742;2022-09-17T10:18:44;3.20;;;1.47;;
10045;SDS011;5063;50.878;4.742;2022-09-17T10:21:18;5.90;;;2.17;;
10045;SDS011;5063;50.878;4.742;2022-09-17T10:23:45;5.10;;;1.60;;
10045;SDS011;5063;50.878;4.742;2022-09-17T10:29:11;3.60;;;1.77;;
10045;SDS011;5063;50.878;4.742;2022-09-17T10:31:47;5.43;;;1.50;;
10045;SDS011;5063;50.878;4.742;2022-09-17T10:34:32;2.83;;;1.30;;
10045;SDS011;5063;50.878;4.742;2022-09-17T10:36:58;1.83;;;1.40;;
10045;SDS011;5063;50.878;4.742;2022-09-17T10:41:56;4.30;;;0.80;;
10045;SDS011;5063;50.878;4.742;2022-09-17T10:44:31;1.17;;;0.77;;
10045;SDS011;5063;50.878;4.742;2022-09-17T10:47:03;1.03;;;0.60;;
10045;SDS011;5063;50.878;4.742;2022-09-17T10:49:45;1.53;;;0.73;;
10045;SDS011;5063;50.878;4.742;2022-09-17T10:52:27;1.07;;;0.50;;
10045;SDS011;5063;50.878;4.742;2022-09-17T10:55:14;0.57;;;0.57;;
10045;SDS011;5063;50.878;4.742;2022-09-17T11:00:35;2.80;;;0.80;;
10045;SDS011;5063;50.878;4.742;2022-09-17T11:05:44;3.27;;;1.30;;
10045;SDS011;5063;50.878;4.742;2022-09-17T11:08:20;2.13;;;1.40;;
10045;SDS011;5063;50.878;4.742;2022-09-17T11:11:05;1.20;;;1.00;;
10045;SDS011;5063;50.878;4.742;2022-09-17T11:19:29;4.20;;;1.10;;
10045;SDS011;5063;50.878;4.742;2022-09-17T11:27:51;2.23;;;1.17;;
10045;SDS011;5063;50.878;4.742;2022-09-17T11:30:47;1.77;;;0.80;;
10045;SDS011;5063;50.878;4.742;2022-09-17T11:36:14;2.03;;;1.17;;
10045;SDS011;5063;50.878;4.742;2022-09-17T11:38:49;1.20;;;0.90;;
10045;SDS011;5063;50.878;4.742;2022-09-17T11:44:07;3.07;;;1.30;;
10045;SDS011;5063;50.878;4.742;2022-09-17T11:46:38;2.03;;;1.10;;
10045;SDS011;5063;50.878;4.742;2022-09-17T11:49:26;0.87;;;0.87;;
10045;SDS011;5063;50.878;4.742;2022-09-17T11:54:34;1.93;;;0.73;;
10045;SDS011;5063;50.878;4.742;2022-09-17T11:59:43;2.10;;;1.00;;
10045;SDS011;5063;50.878;4.742;2022-09-17T12:02:16;2.37;;;1.27;;
10045;SDS011;5063;50.878;4.742;2022-09-17T12:04:57;4.33;;;1.87;;
10045;SDS011;5063;50.878;4.742;2022-09-17T12:10:46;6.20;;;1.50;;
10045;SDS011;5063;50.878;4.742;2022-09-17T12:13:33;6.97;;;1.40;;
10045;SDS011;5063;50.878;4.742;2022-09-17T12:16:06;3.27;;;1.07;;
10045;SDS011;5063;50.878;4.742;2022-09-17T12:24:21;5.10;;;1.60;;
10045;SDS011;5063;50.878;4.742;2022-09-17T12:30:03;3.47;;;1.40;;
10045;SDS011;5063;50.878;4.742;2022-09-17T12:32:54;5.07;;;1.37;;
10045;SDS011;5063;50.878;4.742;2022-09-17T12:44:00;5.30;;;1.63;;
10045;SDS011;5063;50.878;4.742;2022-09-17T12:46:46;8.20;;;1.80;;
10045;SDS011;5063;50.878;4.742;2022-09-17T12:58:16;11.20;;;2.07;;
10045;SDS011;5063;50.878;4.742;2022-09-17T13:00:55;8.40;;;2.33;;
10045;SDS011;5063;50.878;4.742;2022-09-17T13:03:35;8.67;;;1.63;;
10045;SDS011;5063;50.878;4.742;2022-09-17T13:06:13;7.63;;;1.87;;
10045;SDS011;5063;50.878;4.742;2022-09-17T13:14:47;7.33;;;1.77;;
10045;SDS011;5063;50.878;4.742;2022-09-17T13:19:58;8.10;;;2.40;;
10045;SDS011;5063;50.878;4.742;2022-09-17T13:22:48;6.63;;;1.90;;
10045;SDS011;5063;50.878;4.742;2022-09-17T13:25:17;5.13;;;1.80;;
10045;SDS011;5063;50.878;4.742;2022-09-17T13:27:48;7.73;;;2.43;;
10045;SDS011;5063;50.878;4.742;2022-09-17T13:30:16;8.93;;;1.80;;
10045;SDS011;5063;50.878;4.742;2022-09-17T13:32:51;8.03;;;2.27;;
10045;SDS011;5063;50.878;4.742;2022-09-17T13:40:19;12.07;;;2.30;;
10045;SDS011;5063;50.878;4.742;2022-09-17T13:42:48;9.33;;;2.07;;
10045;SDS011;5063;50.878;4.742;2022-09-17T13:45:19;6.60;;;2.03;;
10045;SDS011;5063;50.878;4.742;2022-09-17T13:48:01;7.80;;;2.37;;
10045;SDS011;5063;50.878;4.742;2022-09-17T13:50:39;5.67;;;2.20;;
10045;SDS011;5063;50.878;4.742;2022-09-17T14:00:50;5.30;;;2.07;;
10045;SDS011;5063;50.878;4.742;2022-09-17T14:11:21;8.27;;;2.13;;
10045;SDS011;5063;50.878;4.742;2022-09-17T14:14:39;6.13;;;1.50;;
10045;SDS011;5063;50.878;4.742;2022-09-17T14:17:03;6.73;;;1.50;;
10045;SDS011;5063;50.878;4.742;2022-09-17T14:19:48;3.17;;;1.23;;
10045;SDS011;5063;50.878;4.742;2022-09-17T14:22:16;5.37;;;1.00;;
10045;SDS011;5063;50.878;4.742;2022-09-17T14:24:50;3.57;;;1.33;;
10045;SDS011;5063;50.878;4.742;2022-09-17T14:30:21;4.60;;;1.40;;
10045;SDS011;5063;50.878;4.742;2022-09-17T14:35:42;6.40;;;1.57;;
10045;SDS011;5063;50.878;4.742;2022-09-17T14:46:17;3.03;;;1.30;;
10045;SDS011;5063;50.878;4.742;2022-09-17T14:48:46;3.53;;;1.10;;
10045;SDS011;5063;50.878;4.742;2022-09-17T14:53:42;5.13;;;1.47;;
10045;SDS011;5063;50.878;4.742;2022-09-17T14:56:08;3.13;;;1.20;;
10045;SDS011;5063;50.878;4.742;2022-09-17T14:58:39;6.43;;;1.53;;
10045;SDS011;5063;50.878;4.742;2022-09-17T15:01:22;3.53;;;1.20;;
10045;SDS011;5063;50.878;4.742;2022-09-17T15:03:48;3.33;;;1.03;;
10045;SDS011;5063;50.878;4.742;2022-09-17T15:06:21;2.83;;;1.20;;
10045;SDS011;5063;50.878;4.742;2022-09-17T15:08:47;2.23;;;1.00;;
10045;SDS011;5063;50.878;4.742;2022-09-17T15:11:13;6.33;;;1.17;;
10045;SDS011;5063;50.878;4.742;2022-09-17T15:13:45;5.57;;;1.40;;
10045;SDS011;5063;50.878;4.742;2022-09-17T15:16:22;3.87;;;1.10;;
10045;SDS011;5063;50.878;4.742;2022-09-17T15:18:59;9.10;;;1.40;;
10045;SDS011;5063;50.878;4.742;2022-09-17T15:21:33;5.43;;;2.07;;
10045;SDS011;5063;50.878;4.742;2022-09-17T15:26:45;2.90;;;0.90;;
10045;SDS011;5063;50.878;4.742;2022-09-17T15:29:15;2.90;;;0.97;;
10045;SDS011;5063;50.878;4.742;2022-09-17T15:31:47;3.30;;;0.90;;
10045;SDS011;5063;50.878;4.742;2022-09-17T15:34:12;2.23;;;0.97;;
10045;SDS011;5063;50.878;4.742;2022-09-17T15:36:38;3.03;;;0.90;;
10045;SDS011;5063;50.878;4.742;2022-09-17T15:41:56;6.07;;;1.10;;
10045;SDS011;5063;50.878;4.742;2022-09-17T15:44:23;5.07;;;1.60;;
10045;SDS011;5063;50.878;4.742;2022-09-17T15:46:50;3.03;;;1.10;;
10045;SDS011;5063;50.878;4.742;2022-09-17T15:49:30;2.77;;;1.57;;
10045;SDS011;5063;50.878;4.742;2022-09-17T15:54:59;5.70;;;1.57;;
10045;SDS011;5063;50.878;4.742;2022-09-17T15:57:29;6.30;;;1.90;;
10045;SDS011;5063;50.878;4.742;2022-09-17T16:00:04;4.43;;;1.40;;
10045;SDS011;5063;50.878;4.742;2022-09-17T16:02:35;4.53;;;1.40;;
10045;SDS011;5063;50.878;4.742;2022-09-17T16:05:46;8.10;;;1.80;;
10045;SDS011;5063;50.878;4.742;2022-09-17T16:07:49;4.13;;;1.40;;
10045;SDS011;5063;50.878;4.742;2022-09-17T16:10:16;3.90;;;1.47;;
10045;SDS011;5063;50.878;4.742;2022-09-17T16:12:42;8.53;;;1.80;;
10045;SDS011;5063;50.878;4.742;2022-09-17T16:15:08;5.87;;;1.40;;
10045;SDS011;5063;50.878;4.742;2022-09-17T16:22:39;6.40;;;1.67;;
10045;SDS011;5063;50.878;4.742;2022-09-17T16:25:05;3.80;;;1.27;;
10045;SDS011;5063;50.878;4.742;2022-09-17T16:27:31;4.77;;;1.67;;
10045;SDS011;5063;50.878;4.742;2022-09-17T16:30:19;4.80;;;1.80;;
10045;SDS011;5063;50.878;4.742;2022-09-17T16:32:46;3.67;;;1.83;;
10045;SDS011;5063;50.878;4.742;2022-09-17T16:35:12;5.77;;;1.40;;
10045;SDS011;5063;50.878;4.742;2022-09-17T16:37:39;3.40;;;1.43;;
10045;SDS011;5063;50.878;4.742;2022-09-17T16:40:05;5.97;;;1.90;;
10045;SDS011;5063;50.878;4.742;2022-09-17T16:42:34;7.00;;;1.70;;
10045;SDS011;5063;50.878;4.742;2022-09-17T16:45:00;2.83;;;1.40;;
10045;SDS011;5063;50.878;4.742;2022-09-17T16:47:27;7.53;;;1.70;;
10045;SDS011;5063;50.878;4.742;2022-09-17T16:49:55;4.70;;;1.50;;
10045;SDS011;5063;50.878;4.742;2022-09-17T16:52:21;4.87;;;1.50;;
10045;SDS011;5063;50.878;4.742;2022-09-17T16:54:47;5.00;;;1.13;;
10045;SDS011;5063;50.878;4.742;2022-09-17T16:57:12;5.30;;;1.40;;
10045;SDS011;5063;50.878;4.742;2022-09-17T16:59:38;3.23;;;1.57;;
10045;SDS011;5063;50.878;4.742;2022-09-17T17:02:04;3.13;;;1.43;;
10045;SDS011;5063;50.878;4.742;2022-09-17T17:04:29;7.17;;;1.43;;
10045;SDS011;5063;50.878;4.742;2022-09-17T17:06:55;4.33;;;1.43;;
10045;SDS011;5063;50.878;4.742;2022-09-17T17:09:21;6.47;;;1.70;;
10045;SDS011;5063;50.878;4.742;2022-09-17T17:11:46;7.27;;;1.80;;
10045;SDS011;5063;50.878;4.742;2022-09-17T17:14:12;3.47;;;1.60;;
10045;SDS011;5063;50.878;4.742;2022-09-17T17:16:38;4.43;;;1.27;;
10045;SDS011;5063;50.878;4.742;2022-09-17T17:19:05;5.30;;;1.90;;
10045;SDS011;5063;50.878;4.742;2022-09-17T17:21:31;6.70;;;1.77;;
10045;SDS011;5063;50.878;4.742;2022-09-17T17:23:56;8.90;;;2.40;;
10045;SDS011;5063;50.878;4.742;2022-09-17T17:26:22;5.83;;;2.00;;
10045;SDS011;5063;50.878;4.742;2022-09-17T17:28:48;7.93;;;1.87;;
10045;SDS011;5063;50.878;4.742;2022-09-17T17:31:14;8.43;;;1.80;;
10045;SDS011;5063;50.878;4.742;2022-09-17T17:33:39;4.73;;;2.13;;
10045;SDS011;5063;50.878;4.742;2022-09-17T17:36:05;5.40;;;2.10;;
10045;SDS011;5063;50.878;4.742;2022-09-17T17:38:31;6.53;;;2.20;;
10045;SDS011;5063;50.878;4.742;2022-09-17T17:41:04;7.03;;;2.30;;
10045;SDS011;5063;50.878;4.742;2022-09-17T17:43:32;8.97;;;1.93;;
10045;SDS011;5063;50.878;4.742;2022-09-17T17:45:58;8.17;;;2.10;;
10045;SDS011;5063;50.878;4.742;2022-09-17T17:48:23;9.73;;;2.47;;
10045;SDS011;5063;50.878;4.742;2022-09-17T17:50:49;5.83;;;2.60;;
10045;SDS011;5063;50.878;4.742;2022-09-17T17:53:15;7.13;;;2.43;;
10045;SDS011;5063;50.878;4.742;2022-09-17T17:55:41;3.10;;;1.43;;
10045;SDS011;5063;50.878;4.742;2022-09-17T17:58:07;5.50;;;1.70;;
10045;SDS011;5063;50.878;4.742;2022-09-17T18:00:32;6.73;;;2.13;;
10045;SDS011;5063;50.878;4.742;2022-09-17T18:02:58;6.77;;;2.20;;
10045;SDS011;5063;50.878;4.742;2022-09-17T18:05:28;11.37;;;2.73;;
10045;SDS011;5063;50.878;4.742;2022-09-17T18:07:54;5.03;;;1.70;;
10045;SDS011;5063;50.878;4.742;2022-09-17T18:10:20;7.70;;;1.80;;
10045;SDS011;5063;50.878;4.742;2022-09-17T18:12:47;3.83;;;1.60;;
10045;SDS011;5063;50.878;4.742;2022-09-17T18:15:14;7.43;;;1.73;;
10045;SDS011;5063;50.878;4.742;2022-09-17T18:17:41;6.10;;;1.90;;
10045;SDS011;5063;50.878;4.742;2022-09-17T18:20:07;7.50;;;2.57;;
10045;SDS011;5063;50.878;4.742;2022-09-17T18:22:33;3.93;;;1.83;;
10045;SDS011;5063;50.878;4.742;2022-09-17T18:24:59;8.13;;;2.53;;
10045;SDS011;5063;50.878;4.742;2022-09-17T18:27:25;7.40;;;2.37;;
10045;SDS011;5063;50.878;4.742;2022-09-17T18:29:51;6.20;;;2.20;;
10045;SDS011;5063;50.878;4.742;2022-09-17T18:32:17;5.00;;;2.20;;
10045;SDS011;5063;50.878;4.742;2022-09-17T18:34:43;6.80;;;2.30;;
10045;SDS011;5063;50.878;4.742;2022-09-17T18:37:09;6.27;;;2.60;;
10045;SDS011;5063;50.878;4.742;2022-09-17T18:39:34;6.93;;;2.23;;
10045;SDS011;5063;50.878;4.742;2022-09-17T18:42:00;11.03;;;2.50;;
10045;SDS011;5063;50.878;4.742;2022-09-17T18:44:26;7.90;;;2.17;;
10045;SDS011;5063;50.878;4.742;2022-09-17T18:46:51;5.10;;;1.87;;
10045;SDS011;5063;50.878;4.742;2022-09-17T18:49:17;4.13;;;1.70;;
10045;SDS011;5063;50.878;4.742;2022-09-17T18:51:43;7.77;;;2.13;;
10045;SDS011;5063;50.878;4.742;2022-09-17T18:54:09;8.00;;;2.37;;
10045;SDS011;5063;50.878;4.742;2022-09-17T18:56:36;5.07;;;1.97;;
10045;SDS011;5063;50.878;4.742;2022-09-17T18:59:02;5.33;;;2.40;;
10045;SDS011;5063;50.878;4.742;2022-09-17T19:01:29;7.53;;;2.40;;